Terminal Aerodrome Forecast
Issued by NWS Sioux Falls, SD

Home | Current Version | Previous Version | Graphics & Text | Print | Product List | Glossary On
Versions: 1 2 3 4 5 6 7 8 9 10 11 12 13 14 15 16 17 18 19 20 21 22 23 24 25 26 27
000
FTUS43 KFSD 201720
TAFSUX
TAF
KSUX 201720Z 2018/2118 18014G20KT P6SM SCT150
     FM210100 17011KT P6SM FEW250
     FM210300 15008KT P6SM FEW250
     FM211400 18009KT P6SM FEW250=

USA.gov is the U.S. government's official web portal to all federal, state and local government web resources and services.